sensor_id;sensor_type;location;lat;lon;timestamp;P1;durP1;ratioP1;P2;durP2;ratioP2
29466;SDS011;60968;37.490;-122.288;2023-06-14T00:02:13;1.40;;;0.90;;
29466;SDS011;60968;37.490;-122.288;2023-06-14T00:05:14;2.00;;;0.70;;
29466;SDS011;60968;37.490;-122.288;2023-06-14T00:08:15;2.83;;;0.80;;
29466;SDS011;60968;37.490;-122.288;2023-06-14T00:11:16;1.87;;;0.73;;
29466;SDS011;60968;37.490;-122.288;2023-06-14T00:14:17;2.00;;;1.10;;
29466;SDS011;60968;37.490;-122.288;2023-06-14T00:17:18;0.90;;;0.80;;
29466;SDS011;60968;37.490;-122.288;2023-06-14T00:20:19;2.30;;;0.80;;
29466;SDS011;60968;37.490;-122.288;2023-06-14T00:23:19;1.80;;;1.00;;
29466;SDS011;60968;37.490;-122.288;2023-06-14T00:26:20;1.50;;;0.90;;
29466;SDS011;60968;37.490;-122.288;2023-06-14T00:29:21;0.80;;;0.80;;
29466;SDS011;60968;37.490;-122.288;2023-06-14T00:32:24;3.17;;;0.90;;
29466;SDS011;60968;37.490;-122.288;2023-06-14T00:35:28;3.70;;;0.90;;
29466;SDS011;60968;37.490;-122.288;2023-06-14T00:38:30;2.50;;;0.70;;
29466;SDS011;60968;37.490;-122.288;2023-06-14T00:41:32;1.53;;;0.70;;
29466;SDS011;60968;37.490;-122.288;2023-06-14T00:44:33;1.43;;;0.83;;
29466;SDS011;60968;37.490;-122.288;2023-06-14T00:47:36;1.00;;;0.60;;
29466;SDS011;60968;37.490;-122.288;2023-06-14T00:50:39;1.43;;;0.80;;
29466;SDS011;60968;37.490;-122.288;2023-06-14T00:53:41;1.07;;;0.80;;
29466;SDS011;60968;37.490;-122.288;2023-06-14T00:56:42;2.20;;;0.90;;
29466;SDS011;60968;37.490;-122.288;2023-06-14T00:59:45;1.00;;;0.90;;
29466;SDS011;60968;37.490;-122.288;2023-06-14T01:02:47;1.27;;;0.93;;
29466;SDS011;60968;37.490;-122.288;2023-06-14T01:05:52;1.07;;;0.90;;
29466;SDS011;60968;37.490;-122.288;2023-06-14T01:09:17;1.80;;;0.80;;
29466;SDS011;60968;37.490;-122.288;2023-06-14T01:15:48;1.33;;;0.70;;
29466;SDS011;60968;37.490;-122.288;2023-06-14T01:18:51;1.00;;;0.90;;
29466;SDS011;60968;37.490;-122.288;2023-06-14T01:21:55;0.97;;;0.80;;
29466;SDS011;60968;37.490;-122.288;2023-06-14T01:24:56;1.60;;;1.10;;
29466;SDS011;60968;37.490;-122.288;2023-06-14T01:28:04;2.43;;;0.93;;
29466;SDS011;60968;37.490;-122.288;2023-06-14T01:31:06;2.10;;;1.03;;
29466;SDS011;60968;37.490;-122.288;2023-06-14T01:34:09;3.03;;;0.97;;
29466;SDS011;60968;37.490;-122.288;2023-06-14T01:37:11;1.13;;;1.00;;
29466;SDS011;60968;37.490;-122.288;2023-06-14T01:40:17;1.20;;;0.90;;
29466;SDS011;60968;37.490;-122.288;2023-06-14T01:43:20;1.57;;;1.10;;
29466;SDS011;60968;37.490;-122.288;2023-06-14T01:46:22;0.80;;;0.80;;
29466;SDS011;60968;37.490;-122.288;2023-06-14T01:49:23;0.90;;;0.80;;
29466;SDS011;60968;37.490;-122.288;2023-06-14T01:52:26;1.17;;;0.70;;
29466;SDS011;60968;37.490;-122.288;2023-06-14T01:55:27;2.07;;;1.13;;
29466;SDS011;60968;37.490;-122.288;2023-06-14T01:58:28;5.47;;;1.47;;
29466;SDS011;60968;37.490;-122.288;2023-06-14T02:01:30;1.30;;;1.10;;
29466;SDS011;60968;37.490;-122.288;2023-06-14T02:04:31;2.03;;;0.70;;
29466;SDS011;60968;37.490;-122.288;2023-06-14T02:07:32;2.63;;;1.80;;
29466;SDS011;60968;37.490;-122.288;2023-06-14T02:10:34;1.87;;;1.03;;
29466;SDS011;60968;37.490;-122.288;2023-06-14T02:13:35;1.63;;;1.00;;
29466;SDS011;60968;37.490;-122.288;2023-06-14T02:16:37;2.43;;;1.00;;
29466;SDS011;60968;37.490;-122.288;2023-06-14T02:19:38;3.20;;;1.33;;
29466;SDS011;60968;37.490;-122.288;2023-06-14T02:22:40;1.87;;;1.20;;
29466;SDS011;60968;37.490;-122.288;2023-06-14T02:25:42;1.47;;;1.00;;
29466;SDS011;60968;37.490;-122.288;2023-06-14T02:28:43;1.80;;;1.17;;
29466;SDS011;60968;37.490;-122.288;2023-06-14T02:31:45;3.73;;;1.30;;
29466;SDS011;60968;37.490;-122.288;2023-06-14T02:34:46;1.07;;;0.97;;
29466;SDS011;60968;37.490;-122.288;2023-06-14T02:37:49;1.60;;;1.20;;
29466;SDS011;60968;37.490;-122.288;2023-06-14T02:40:51;1.93;;;1.50;;
29466;SDS011;60968;37.490;-122.288;2023-06-14T02:43:52;1.20;;;1.00;;
29466;SDS011;60968;37.490;-122.288;2023-06-14T02:46:54;2.87;;;1.33;;
29466;SDS011;60968;37.490;-122.288;2023-06-14T02:49:55;1.97;;;1.27;;
29466;SDS011;60968;37.490;-122.288;2023-06-14T02:52:56;3.97;;;1.57;;
29466;SDS011;60968;37.490;-122.288;2023-06-14T02:56:01;3.10;;;1.73;;
29466;SDS011;60968;37.490;-122.288;2023-06-14T02:59:03;9.07;;;1.80;;
29466;SDS011;60968;37.490;-122.288;2023-06-14T03:02:14;3.63;;;1.70;;
29466;SDS011;60968;37.490;-122.288;2023-06-14T03:05:15;1.63;;;1.20;;
29466;SDS011;60968;37.490;-122.288;2023-06-14T03:08:22;2.67;;;1.37;;
29466;SDS011;60968;37.490;-122.288;2023-06-14T03:11:25;3.40;;;1.50;;
29466;SDS011;60968;37.490;-122.288;2023-06-14T03:14:27;2.63;;;1.60;;
29466;SDS011;60968;37.490;-122.288;2023-06-14T03:17:29;1.83;;;1.30;;
29466;SDS011;60968;37.490;-122.288;2023-06-14T03:20:31;1.83;;;1.27;;
29466;SDS011;60968;37.490;-122.288;2023-06-14T03:23:32;1.50;;;1.23;;
29466;SDS011;60968;37.490;-122.288;2023-06-14T03:26:34;2.43;;;1.37;;
29466;SDS011;60968;37.490;-122.288;2023-06-14T03:29:39;1.57;;;1.10;;
29466;SDS011;60968;37.490;-122.288;2023-06-14T03:32:40;1.97;;;1.10;;
29466;SDS011;60968;37.490;-122.288;2023-06-14T03:35:41;1.30;;;1.20;;
29466;SDS011;60968;37.490;-122.288;2023-06-14T03:38:44;3.77;;;1.40;;
29466;SDS011;60968;37.490;-122.288;2023-06-14T03:41:46;1.70;;;1.20;;
29466;SDS011;60968;37.490;-122.288;2023-06-14T03:44:48;2.33;;;1.30;;
29466;SDS011;60968;37.490;-122.288;2023-06-14T03:47:51;2.77;;;1.30;;
29466;SDS011;60968;37.490;-122.288;2023-06-14T03:50:52;1.47;;;1.07;;
29466;SDS011;60968;37.490;-122.288;2023-06-14T03:53:54;1.40;;;1.27;;
29466;SDS011;60968;37.490;-122.288;2023-06-14T03:56:55;1.73;;;1.27;;
29466;SDS011;60968;37.490;-122.288;2023-06-14T03:59:57;2.60;;;1.40;;
29466;SDS011;60968;37.490;-122.288;2023-06-14T04:02:58;1.57;;;1.30;;
29466;SDS011;60968;37.490;-122.288;2023-06-14T04:06:00;1.77;;;1.20;;
29466;SDS011;60968;37.490;-122.288;2023-06-14T04:09:01;3.30;;;1.10;;
29466;SDS011;60968;37.490;-122.288;2023-06-14T04:12:05;2.03;;;1.27;;
29466;SDS011;60968;37.490;-122.288;2023-06-14T04:15:07;2.90;;;1.30;;
29466;SDS011;60968;37.490;-122.288;2023-06-14T04:18:09;1.63;;;1.40;;
29466;SDS011;60968;37.490;-122.288;2023-06-14T04:21:12;2.03;;;1.23;;
29466;SDS011;60968;37.490;-122.288;2023-06-14T04:24:14;2.10;;;1.40;;
29466;SDS011;60968;37.490;-122.288;2023-06-14T04:27:16;2.07;;;1.60;;
29466;SDS011;60968;37.490;-122.288;2023-06-14T04:30:17;4.03;;;1.20;;
29466;SDS011;60968;37.490;-122.288;2023-06-14T04:33:21;2.23;;;1.33;;
29466;SDS011;60968;37.490;-122.288;2023-06-14T04:36:25;3.03;;;1.50;;
29466;SDS011;60968;37.490;-122.288;2023-06-14T04:39:27;3.30;;;1.43;;
29466;SDS011;60968;37.490;-122.288;2023-06-14T04:42:28;3.30;;;1.67;;
29466;SDS011;60968;37.490;-122.288;2023-06-14T04:45:29;1.20;;;1.10;;
29466;SDS011;60968;37.490;-122.288;2023-06-14T04:48:31;3.40;;;1.50;;
29466;SDS011;60968;37.490;-122.288;2023-06-14T04:51:33;1.93;;;1.37;;
29466;SDS011;60968;37.490;-122.288;2023-06-14T04:54:34;1.93;;;1.43;;
29466;SDS011;60968;37.490;-122.288;2023-06-14T04:57:35;1.97;;;1.20;;
29466;SDS011;60968;37.490;-122.288;2023-06-14T05:00:36;1.60;;;1.30;;
29466;SDS011;60968;37.490;-122.288;2023-06-14T05:03:37;4.53;;;1.50;;
29466;SDS011;60968;37.490;-122.288;2023-06-14T05:06:39;3.40;;;1.50;;
29466;SDS011;60968;37.490;-122.288;2023-06-14T05:09:41;1.73;;;1.10;;
29466;SDS011;60968;37.490;-122.288;2023-06-14T05:12:42;1.60;;;1.20;;
29466;SDS011;60968;37.490;-122.288;2023-06-14T05:15:43;1.97;;;1.30;;
29466;SDS011;60968;37.490;-122.288;2023-06-14T05:18:45;1.63;;;1.20;;
29466;SDS011;60968;37.490;-122.288;2023-06-14T05:21:47;2.03;;;1.23;;
29466;SDS011;60968;37.490;-122.288;2023-06-14T05:24:48;2.33;;;1.70;;
29466;SDS011;60968;37.490;-122.288;2023-06-14T05:27:49;7.67;;;1.90;;
29466;SDS011;60968;37.490;-122.288;2023-06-14T05:30:51;2.07;;;1.50;;
29466;SDS011;60968;37.490;-122.288;2023-06-14T05:33:52;1.90;;;1.30;;
29466;SDS011;60968;37.490;-122.288;2023-06-14T05:36:53;2.13;;;1.60;;
29466;SDS011;60968;37.490;-122.288;2023-06-14T05:39:56;2.07;;;1.20;;
29466;SDS011;60968;37.490;-122.288;2023-06-14T05:42:57;1.93;;;1.57;;
29466;SDS011;60968;37.490;-122.288;2023-06-14T05:45:58;1.93;;;1.53;;
29466;SDS011;60968;37.490;-122.288;2023-06-14T05:49:00;1.40;;;1.30;;
29466;SDS011;60968;37.490;-122.288;2023-06-14T05:52:01;1.93;;;1.40;;
29466;SDS011;60968;37.490;-122.288;2023-06-14T05:55:03;1.47;;;1.27;;
29466;SDS011;60968;37.490;-122.288;2023-06-14T05:58:05;1.73;;;1.47;;
29466;SDS011;60968;37.490;-122.288;2023-06-14T06:01:06;4.70;;;1.40;;
29466;SDS011;60968;37.490;-122.288;2023-06-14T06:04:08;2.37;;;1.30;;
29466;SDS011;60968;37.490;-122.288;2023-06-14T06:07:09;2.37;;;1.30;;
29466;SDS011;60968;37.490;-122.288;2023-06-14T06:10:10;4.70;;;1.20;;
29466;SDS011;60968;37.490;-122.288;2023-06-14T06:13:11;2.23;;;1.20;;
29466;SDS011;60968;37.490;-122.288;2023-06-14T06:16:14;3.57;;;1.70;;
29466;SDS011;60968;37.490;-122.288;2023-06-14T06:19:15;2.70;;;1.73;;
29466;SDS011;60968;37.490;-122.288;2023-06-14T06:22:17;4.57;;;1.80;;
29466;SDS011;60968;37.490;-122.288;2023-06-14T06:25:19;6.33;;;2.20;;
29466;SDS011;60968;37.490;-122.288;2023-06-14T06:28:20;2.53;;;1.57;;
29466;SDS011;60968;37.490;-122.288;2023-06-14T06:31:21;2.43;;;1.50;;
29466;SDS011;60968;37.490;-122.288;2023-06-14T06:34:25;2.63;;;1.70;;
29466;SDS011;60968;37.490;-122.288;2023-06-14T06:37:27;4.07;;;1.97;;
29466;SDS011;60968;37.490;-122.288;2023-06-14T06:40:30;2.90;;;1.80;;
29466;SDS011;60968;37.490;-122.288;2023-06-14T06:43:31;2.93;;;2.07;;
29466;SDS011;60968;37.490;-122.288;2023-06-14T06:46:32;3.67;;;1.93;;
29466;SDS011;60968;37.490;-122.288;2023-06-14T06:49:35;2.63;;;1.50;;
29466;SDS011;60968;37.490;-122.288;2023-06-14T06:52:36;2.47;;;1.80;;
29466;SDS011;60968;37.490;-122.288;2023-06-14T06:55:39;2.63;;;1.63;;
29466;SDS011;60968;37.490;-122.288;2023-06-14T06:58:41;2.90;;;1.60;;
29466;SDS011;60968;37.490;-122.288;2023-06-14T07:01:44;2.63;;;1.93;;
29466;SDS011;60968;37.490;-122.288;2023-06-14T07:04:45;3.63;;;1.90;;
29466;SDS011;60968;37.490;-122.288;2023-06-14T07:07:46;6.93;;;2.07;;
29466;SDS011;60968;37.490;-122.288;2023-06-14T07:10:47;2.33;;;1.90;;
29466;SDS011;60968;37.490;-122.288;2023-06-14T07:13:48;5.53;;;2.17;;
29466;SDS011;60968;37.490;-122.288;2023-06-14T07:16:49;4.67;;;2.37;;
29466;SDS011;60968;37.490;-122.288;2023-06-14T07:19:51;3.90;;;2.57;;
29466;SDS011;60968;37.490;-122.288;2023-06-14T07:22:53;2.60;;;2.20;;
29466;SDS011;60968;37.490;-122.288;2023-06-14T07:25:54;3.23;;;2.20;;
29466;SDS011;60968;37.490;-122.288;2023-06-14T07:28:55;3.67;;;2.30;;
29466;SDS011;60968;37.490;-122.288;2023-06-14T07:31:56;3.37;;;1.93;;
29466;SDS011;60968;37.490;-122.288;2023-06-14T07:34:57;7.10;;;2.27;;
29466;SDS011;60968;37.490;-122.288;2023-06-14T07:37:59;4.23;;;1.70;;
29466;SDS011;60968;37.490;-122.288;2023-06-14T07:41:00;5.70;;;1.90;;
29466;SDS011;60968;37.490;-122.288;2023-06-14T07:44:01;4.27;;;1.80;;
29466;SDS011;60968;37.490;-122.288;2023-06-14T07:47:04;4.63;;;1.30;;
29466;SDS011;60968;37.490;-122.288;2023-06-14T07:50:05;3.87;;;2.00;;
29466;SDS011;60968;37.490;-122.288;2023-06-14T07:53:06;3.27;;;1.70;;
29466;SDS011;60968;37.490;-122.288;2023-06-14T07:56:08;2.53;;;1.60;;
29466;SDS011;60968;37.490;-122.288;2023-06-14T07:59:09;4.60;;;2.17;;
29466;SDS011;60968;37.490;-122.288;2023-06-14T08:02:11;5.13;;;2.50;;
29466;SDS011;60968;37.490;-122.288;2023-06-14T08:05:15;4.30;;;2.10;;
29466;SDS011;60968;37.490;-122.288;2023-06-14T08:08:19;4.00;;;2.30;;
29466;SDS011;60968;37.490;-122.288;2023-06-14T08:11:20;4.33;;;1.93;;
29466;SDS011;60968;37.490;-122.288;2023-06-14T08:14:22;2.70;;;2.20;;
29466;SDS011;60968;37.490;-122.288;2023-06-14T08:17:24;4.47;;;2.10;;
29466;SDS011;60968;37.490;-122.288;2023-06-14T08:20:25;2.73;;;2.20;;
29466;SDS011;60968;37.490;-122.288;2023-06-14T08:23:26;4.00;;;2.70;;
29466;SDS011;60968;37.490;-122.288;2023-06-14T08:26:28;3.83;;;2.33;;
29466;SDS011;60968;37.490;-122.288;2023-06-14T08:29:29;3.17;;;2.23;;
29466;SDS011;60968;37.490;-122.288;2023-06-14T08:32:30;5.43;;;2.87;;
29466;SDS011;60968;37.490;-122.288;2023-06-14T08:35:31;4.60;;;2.43;;
29466;SDS011;60968;37.490;-122.288;2023-06-14T08:38:33;3.80;;;2.60;;
29466;SDS011;60968;37.490;-122.288;2023-06-14T08:41:34;5.70;;;3.30;;
29466;SDS011;60968;37.490;-122.288;2023-06-14T08:44:36;7.07;;;3.63;;
29466;SDS011;60968;37.490;-122.288;2023-06-14T08:47:39;3.97;;;2.70;;
29466;SDS011;60968;37.490;-122.288;2023-06-14T08:50:42;4.27;;;1.83;;
29466;SDS011;60968;37.490;-122.288;2023-06-14T08:53:45;2.10;;;1.60;;
29466;SDS011;60968;37.490;-122.288;2023-06-14T08:56:53;1.73;;;1.17;;
29466;SDS011;60968;37.490;-122.288;2023-06-14T08:59:55;1.50;;;1.03;;
29466;SDS011;60968;37.490;-122.288;2023-06-14T09:02:56;1.87;;;1.10;;
29466;SDS011;60968;37.490;-122.288;2023-06-14T09:06:01;1.70;;;1.20;;
29466;SDS011;60968;37.490;-122.288;2023-06-14T09:09:03;1.97;;;1.13;;
29466;SDS011;60968;37.490;-122.288;2023-06-14T09:12:06;1.77;;;0.90;;
29466;SDS011;60968;37.490;-122.288;2023-06-14T09:15:08;1.43;;;1.20;;
29466;SDS011;60968;37.490;-122.288;2023-06-14T09:18:11;3.40;;;1.57;;
29466;SDS011;60968;37.490;-122.288;2023-06-14T09:21:13;3.17;;;1.30;;
29466;SDS011;60968;37.490;-122.288;2023-06-14T09:24:15;1.23;;;1.10;;
29466;SDS011;60968;37.490;-122.288;2023-06-14T09:27:16;1.33;;;0.90;;
29466;SDS011;60968;37.490;-122.288;2023-06-14T09:30:19;4.47;;;1.10;;
29466;SDS011;60968;37.490;-122.288;2023-06-14T09:33:21;1.47;;;1.00;;
29466;SDS011;60968;37.490;-122.288;2023-06-14T09:36:23;1.43;;;0.90;;
29466;SDS011;60968;37.490;-122.288;2023-06-14T09:39:25;1.37;;;0.70;;
29466;SDS011;60968;37.490;-122.288;2023-06-14T09:42:26;1.43;;;0.90;;
29466;SDS011;60968;37.490;-122.288;2023-06-14T09:45:27;2.13;;;0.90;;
29466;SDS011;60968;37.490;-122.288;2023-06-14T09:48:28;3.43;;;0.90;;
29466;SDS011;60968;37.490;-122.288;2023-06-14T09:51:30;2.27;;;0.70;;
29466;SDS011;60968;37.490;-122.288;2023-06-14T09:54:33;1.60;;;0.80;;
29466;SDS011;60968;37.490;-122.288;2023-06-14T09:57:41;1.47;;;0.80;;
29466;SDS011;60968;37.490;-122.288;2023-06-14T10:00:45;1.83;;;1.00;;
29466;SDS011;60968;37.490;-122.288;2023-06-14T10:03:48;2.50;;;0.80;;
29466;SDS011;60968;37.490;-122.288;2023-06-14T10:06:52;2.60;;;1.10;;
29466;SDS011;60968;37.490;-122.288;2023-06-14T10:09:54;1.20;;;0.90;;
29466;SDS011;60968;37.490;-122.288;2023-06-14T10:12:55;1.97;;;0.70;;
29466;SDS011;60968;37.490;-122.288;2023-06-14T10:22:49;2.43;;;1.10;;
29466;SDS011;60968;37.490;-122.288;2023-06-14T10:25:59;2.23;;;1.10;;
29466;SDS011;60968;37.490;-122.288;2023-06-14T10:29:00;1.30;;;1.10;;
29466;SDS011;60968;37.490;-122.288;2023-06-14T10:32:07;1.60;;;1.10;;
29466;SDS011;60968;37.490;-122.288;2023-06-14T10:35:08;2.53;;;1.20;;
29466;SDS011;60968;37.490;-122.288;2023-06-14T10:38:10;2.03;;;0.90;;
29466;SDS011;60968;37.490;-122.288;2023-06-14T10:41:12;2.00;;;1.03;;
29466;SDS011;60968;37.490;-122.288;2023-06-14T10:47:21;1.73;;;1.00;;
29466;SDS011;60968;37.490;-122.288;2023-06-14T10:50:27;2.77;;;1.10;;
29466;SDS011;60968;37.490;-122.288;2023-06-14T10:53:28;1.83;;;0.80;;
29466;SDS011;60968;37.490;-122.288;2023-06-14T10:56:29;1.50;;;0.90;;
29466;SDS011;60968;37.490;-122.288;2023-06-14T10:59:31;3.20;;;1.30;;
29466;SDS011;60968;37.490;-122.288;2023-06-14T11:02:50;3.07;;;1.30;;
29466;SDS011;60968;37.490;-122.288;2023-06-14T11:06:14;2.67;;;1.10;;
29466;SDS011;60968;37.490;-122.288;2023-06-14T11:12:48;2.27;;;1.27;;
29466;SDS011;60968;37.490;-122.288;2023-06-14T11:15:50;2.90;;;1.33;;
29466;SDS011;60968;37.490;-122.288;2023-06-14T11:18:51;1.90;;;1.33;;
29466;SDS011;60968;37.490;-122.288;2023-06-14T11:21:51;2.70;;;1.00;;
29466;SDS011;60968;37.490;-122.288;2023-06-14T11:24:52;0.70;;;0.70;;
29466;SDS011;60968;37.490;-122.288;2023-06-14T11:27:53;4.63;;;1.27;;
29466;SDS011;60968;37.490;-122.288;2023-06-14T11:31:01;4.63;;;1.30;;
29466;SDS011;60968;37.490;-122.288;2023-06-14T11:34:02;1.33;;;0.63;;
29466;SDS011;60968;37.490;-122.288;2023-06-14T11:37:03;2.13;;;1.20;;
29466;SDS011;60968;37.490;-122.288;2023-06-14T11:40:08;2.53;;;1.20;;
29466;SDS011;60968;37.490;-122.288;2023-06-14T11:43:09;5.40;;;1.73;;
29466;SDS011;60968;37.490;-122.288;2023-06-14T11:46:13;2.53;;;1.20;;
29466;SDS011;60968;37.490;-122.288;2023-06-14T11:49:14;4.97;;;1.83;;
29466;SDS011;60968;37.490;-122.288;2023-06-14T11:52:16;3.50;;;1.40;;
29466;SDS011;60968;37.490;-122.288;2023-06-14T11:55:18;3.27;;;1.90;;
29466;SDS011;60968;37.490;-122.288;2023-06-14T11:58:19;2.00;;;1.60;;
29466;SDS011;60968;37.490;-122.288;2023-06-14T12:01:20;1.80;;;1.40;;
29466;SDS011;60968;37.490;-122.288;2023-06-14T12:04:24;4.13;;;1.87;;
29466;SDS011;60968;37.490;-122.288;2023-06-14T12:07:26;1.93;;;1.43;;
29466;SDS011;60968;37.490;-122.288;2023-06-14T12:10:30;3.63;;;1.80;;
29466;SDS011;60968;37.490;-122.288;2023-06-14T12:13:42;4.27;;;1.67;;
29466;SDS011;60968;37.490;-122.288;2023-06-14T12:16:44;2.80;;;2.07;;
29466;SDS011;60968;37.490;-122.288;2023-06-14T12:19:45;3.70;;;2.00;;
29466;SDS011;60968;37.490;-122.288;2023-06-14T12:22:50;3.67;;;1.90;;
29466;SDS011;60968;37.490;-122.288;2023-06-14T12:25:51;4.23;;;2.50;;
29466;SDS011;60968;37.490;-122.288;2023-06-14T12:28:52;6.33;;;2.30;;
29466;SDS011;60968;37.490;-122.288;2023-06-14T12:31:53;3.20;;;1.90;;
29466;SDS011;60968;37.490;-122.288;2023-06-14T12:34:54;2.83;;;1.97;;
29466;SDS011;60968;37.490;-122.288;2023-06-14T12:37:55;3.73;;;2.20;;
29466;SDS011;60968;37.490;-122.288;2023-06-14T12:40:56;4.23;;;1.93;;
29466;SDS011;60968;37.490;-122.288;2023-06-14T12:43:57;6.03;;;2.67;;
29466;SDS011;60968;37.490;-122.288;2023-06-14T12:46:58;2.83;;;1.90;;
29466;SDS011;60968;37.490;-122.288;2023-06-14T12:49:58;5.50;;;2.70;;
29466;SDS011;60968;37.490;-122.288;2023-06-14T12:52:59;2.50;;;1.80;;
29466;SDS011;60968;37.490;-122.288;2023-06-14T12:56:00;4.07;;;2.00;;
29466;SDS011;60968;37.490;-122.288;2023-06-14T12:59:01;3.73;;;1.73;;
29466;SDS011;60968;37.490;-122.288;2023-06-14T13:02:18;2.47;;;1.17;;
29466;SDS011;60968;37.490;-122.288;2023-06-14T13:05:20;2.47;;;1.50;;
29466;SDS011;60968;37.490;-122.288;2023-06-14T13:08:20;3.90;;;1.37;;
29466;SDS011;60968;37.490;-122.288;2023-06-14T13:11:21;1.77;;;1.23;;
29466;SDS011;60968;37.490;-122.288;2023-06-14T13:14:23;3.77;;;1.60;;
29466;SDS011;60968;37.490;-122.288;2023-06-14T13:17:24;2.00;;;1.10;;
29466;SDS011;60968;37.490;-122.288;2023-06-14T13:20:26;1.60;;;1.20;;
29466;SDS011;60968;37.490;-122.288;2023-06-14T13:23:27;4.20;;;1.30;;
29466;SDS011;60968;37.490;-122.288;2023-06-14T13:26:28;1.73;;;1.33;;
29466;SDS011;60968;37.490;-122.288;2023-06-14T13:29:29;1.60;;;1.20;;
29466;SDS011;60968;37.490;-122.288;2023-06-14T13:32:31;1.83;;;1.47;;
29466;SDS011;60968;37.490;-122.288;2023-06-14T13:35:32;1.60;;;1.33;;
29466;SDS011;60968;37.490;-122.288;2023-06-14T13:38:33;1.67;;;1.20;;
29466;SDS011;60968;37.490;-122.288;2023-06-14T13:41:34;2.20;;;1.07;;
29466;SDS011;60968;37.490;-122.288;2023-06-14T13:44:35;2.00;;;1.10;;
29466;SDS011;60968;37.490;-122.288;2023-06-14T13:47:36;1.23;;;0.90;;
29466;SDS011;60968;37.490;-122.288;2023-06-14T13:50:37;1.73;;;1.00;;
29466;SDS011;60968;37.490;-122.288;2023-06-14T13:53:39;1.90;;;1.47;;
29466;SDS011;60968;37.490;-122.288;2023-06-14T13:56:40;3.90;;;1.40;;
29466;SDS011;60968;37.490;-122.288;2023-06-14T13:59:42;6.17;;;1.70;;
29466;SDS011;60968;37.490;-122.288;2023-06-14T14:02:43;4.00;;;1.40;;
29466;SDS011;60968;37.490;-122.288;2023-06-14T14:05:44;3.43;;;1.30;;
29466;SDS011;60968;37.490;-122.288;2023-06-14T14:08:45;3.53;;;1.20;;
29466;SDS011;60968;37.490;-122.288;2023-06-14T14:11:46;2.03;;;1.20;;
29466;SDS011;60968;37.490;-122.288;2023-06-14T14:14:47;2.03;;;1.30;;
29466;SDS011;60968;37.490;-122.288;2023-06-14T14:17:50;1.33;;;1.00;;
29466;SDS011;60968;37.490;-122.288;2023-06-14T14:20:51;2.83;;;1.20;;
29466;SDS011;60968;37.490;-122.288;2023-06-14T14:23:52;3.33;;;1.80;;
29466;SDS011;60968;37.490;-122.288;2023-06-14T14:26:53;3.90;;;2.20;;
29466;SDS011;60968;37.490;-122.288;2023-06-14T14:29:54;3.67;;;2.20;;
29466;SDS011;60968;37.490;-122.288;2023-06-14T14:32:56;4.33;;;2.50;;
29466;SDS011;60968;37.490;-122.288;2023-06-14T14:35:57;3.13;;;2.47;;
29466;SDS011;60968;37.490;-122.288;2023-06-14T14:38:59;6.17;;;3.00;;
29466;SDS011;60968;37.490;-122.288;2023-06-14T14:42:00;3.27;;;1.80;;
29466;SDS011;60968;37.490;-122.288;2023-06-14T14:45:01;2.10;;;1.40;;
29466;SDS011;60968;37.490;-122.288;2023-06-14T14:48:02;1.30;;;1.00;;
29466;SDS011;60968;37.490;-122.288;2023-06-14T14:51:04;1.40;;;0.80;;
29466;SDS011;60968;37.490;-122.288;2023-06-14T14:54:05;2.93;;;0.93;;
29466;SDS011;60968;37.490;-122.288;2023-06-14T14:57:07;1.57;;;1.00;;
29466;SDS011;60968;37.490;-122.288;2023-06-14T15:00:08;2.77;;;1.43;;
29466;SDS011;60968;37.490;-122.288;2023-06-14T15:03:10;1.30;;;0.53;;
29466;SDS011;60968;37.490;-122.288;2023-06-14T15:06:11;2.40;;;0.90;;
29466;SDS011;60968;37.490;-122.288;2023-06-14T15:09:12;1.70;;;1.00;;
29466;SDS011;60968;37.490;-122.288;2023-06-14T15:12:13;2.53;;;0.87;;
29466;SDS011;60968;37.490;-122.288;2023-06-14T15:15:14;1.63;;;0.80;;
29466;SDS011;60968;37.490;-122.288;2023-06-14T15:18:15;2.63;;;1.00;;
29466;SDS011;60968;37.490;-122.288;2023-06-14T15:21:17;1.33;;;0.93;;
29466;SDS011;60968;37.490;-122.288;2023-06-14T15:24:18;1.50;;;1.00;;
29466;SDS011;60968;37.490;-122.288;2023-06-14T15:27:19;1.60;;;1.20;;
29466;SDS011;60968;37.490;-122.288;2023-06-14T15:30:20;3.93;;;1.13;;
29466;SDS011;60968;37.490;-122.288;2023-06-14T15:33:22;1.47;;;1.10;;
29466;SDS011;60968;37.490;-122.288;2023-06-14T15:36:24;4.17;;;1.50;;
29466;SDS011;60968;37.490;-122.288;2023-06-14T15:39:25;1.87;;;1.33;;
29466;SDS011;60968;37.490;-122.288;2023-06-14T15:42:26;1.63;;;1.43;;
29466;SDS011;60968;37.490;-122.288;2023-06-14T15:45:27;2.97;;;1.30;;
29466;SDS011;60968;37.490;-122.288;2023-06-14T15:48:29;3.53;;;1.60;;
29466;SDS011;60968;37.490;-122.288;2023-06-14T15:51:30;2.03;;;1.40;;
29466;SDS011;60968;37.490;-122.288;2023-06-14T15:54:31;2.92;;;1.17;;
29466;SDS011;60968;37.490;-122.288;2023-06-14T15:57:32;1.77;;;1.67;;
29466;SDS011;60968;37.490;-122.288;2023-06-14T16:00:33;6.15;;;2.00;;
29466;SDS011;60968;37.490;-122.288;2023-06-14T16:03:34;2.10;;;1.90;;
29466;SDS011;60968;37.490;-122.288;2023-06-14T16:06:35;5.70;;;2.30;;
29466;SDS011;60968;37.490;-122.288;2023-06-14T16:09:36;6.00;;;2.70;;
29466;SDS011;60968;37.490;-122.288;2023-06-14T16:12:37;3.22;;;2.13;;
29466;SDS011;60968;37.490;-122.288;2023-06-14T16:15:38;2.05;;;1.95;;
29466;SDS011;60968;37.490;-122.288;2023-06-14T16:18:39;4.00;;;2.03;;
29466;SDS011;60968;37.490;-122.288;2023-06-14T16:21:40;3.35;;;1.73;;
29466;SDS011;60968;37.490;-122.288;2023-06-14T16:24:41;3.03;;;1.50;;
29466;SDS011;60968;37.490;-122.288;2023-06-14T16:27:43;1.73;;;1.60;;
29466;SDS011;60968;37.490;-122.288;2023-06-14T16:30:44;1.88;;;1.77;;
29466;SDS011;60968;37.490;-122.288;2023-06-14T16:33:45;1.90;;;1.80;;
29466;SDS011;60968;37.490;-122.288;2023-06-14T16:36:46;2.00;;;1.90;;
29466;SDS011;60968;37.490;-122.288;2023-06-14T16:39:47;5.47;;;1.90;;
29466;SDS011;60968;37.490;-122.288;2023-06-14T16:42:48;3.70;;;2.00;;
29466;SDS011;60968;37.490;-122.288;2023-06-14T16:45:50;2.25;;;2.05;;
29466;SDS011;60968;37.490;-122.288;2023-06-14T16:48:51;2.22;;;2.10;;
29466;SDS011;60968;37.490;-122.288;2023-06-14T16:51:52;2.65;;;2.20;;
29466;SDS011;60968;37.490;-122.288;2023-06-14T16:54:54;2.63;;;2.22;;
29466;SDS011;60968;37.490;-122.288;2023-06-14T16:57:55;2.90;;;2.60;;
29466;SDS011;60968;37.490;-122.288;2023-06-14T17:00:56;3.00;;;2.35;;
29466;SDS011;60968;37.490;-122.288;2023-06-14T17:03:57;2.83;;;2.63;;
29466;SDS011;60968;37.490;-122.288;2023-06-14T17:06:59;3.10;;;2.28;;
29466;SDS011;60968;37.490;-122.288;2023-06-14T17:10:00;2.55;;;2.35;;
29466;SDS011;60968;37.490;-122.288;2023-06-14T17:13:01;3.08;;;2.65;;
29466;SDS011;60968;37.490;-122.288;2023-06-14T17:16:02;3.50;;;2.80;;
29466;SDS011;60968;37.490;-122.288;2023-06-14T17:19:04;2.83;;;2.63;;
29466;SDS011;60968;37.490;-122.288;2023-06-14T17:22:05;2.63;;;2.22;;
29466;SDS011;60968;37.490;-122.288;2023-06-14T17:25:06;2.40;;;2.20;;
29466;SDS011;60968;37.490;-122.288;2023-06-14T17:28:08;6.22;;;2.60;;
29466;SDS011;60968;37.490;-122.288;2023-06-14T17:31:09;3.40;;;2.88;;
29466;SDS011;60968;37.490;-122.288;2023-06-14T17:34:10;2.97;;;2.42;;
29466;SDS011;60968;37.490;-122.288;2023-06-14T17:37:11;5.93;;;3.00;;
29466;SDS011;60968;37.490;-122.288;2023-06-14T17:40:12;3.03;;;2.83;;
29466;SDS011;60968;37.490;-122.288;2023-06-14T17:43:13;2.83;;;2.60;;
29466;SDS011;60968;37.490;-122.288;2023-06-14T17:46:14;5.15;;;3.13;;